Time;durP1;ratioP1;P1;durP2;ratioP2;P2;SDS_P1;SDS_P2;PMS_P1;PMS_P2;Temp;Humidity;BMP_temperature;BMP_pressure;BME280_temperature;BME280_humidity;BME280_pressure;Samples;Min_cycle;Max_cycle;Signal;HPM_P1;HPM_P2
2024/01/02 05:07:31;;;;;;;;;34.75;33.25;;;;;;;;5913489;31;10001033;-60
2024/01/02 05:13:36;;;;;;;;;41.75;36.25;;;;;;;;6492503;39;8874;-59
2024/01/02 05:19:39;;;;;;;;;32.25;29.50;;;;;;;;6492751;39;8917;-60
2024/01/02 05:25:41;;;;;;;;;28.00;25.75;;;;;;;;6491410;39;8877;-59
2024/01/02 05:31:43;;;;;;;;;25.50;23.50;;;;;;;;6490152;47;9027;-58
2024/01/02 05:37:46;;;;;;;;;23.75;20.00;;;;;;;;6490473;46;8887;-59
2024/01/02 05:43:48;;;;;;;;;26.50;24.75;;;;;;;;6490611;47;8948;-60
2024/01/02 05:49:50;;;;;;;;;29.00;25.67;;;;;;;;6491039;39;8808;-58
2024/01/02 05:55:53;;;;;;;;;24.50;19.50;;;;;;;;6492864;39;8927;-58
2024/01/02 06:01:55;;;;;;;;;16.75;15.50;;;;;;;;6494306;39;9329;-59
2024/01/02 06:07:58;;;;;;;;;23.75;19.25;;;;;;;;6494943;39;8895;-59
2024/01/02 06:14:01;;;;;;;;;24.75;21.75;;;;;;;;6492826;46;8971;-59
2024/01/02 06:20:06;;;;;;;;;17.75;15.00;;;;;;;;6492293;46;8856;-59
2024/01/02 06:26:09;;;;;;;;;19.75;17.25;;;;;;;;6494405;39;8933;-59
2024/01/02 06:32:11;;;;;;;;;22.75;22.25;;;;;;;;6493467;31;8847;-60
2024/01/02 06:38:14;;;;;;;;;20.00;20.00;;;;;;;;6494294;31;8891;-59
2024/01/02 06:44:16;;;;;;;;;23.00;21.00;;;;;;;;6492855;46;9129;-59
2024/01/02 06:50:18;;;;;;;;;20.25;17.25;;;;;;;;6493289;39;8845;-60
2024/01/02 06:56:20;;;;;;;;;13.50;13.25;;;;;;;;6493668;39;8861;-60
2024/01/02 07:02:23;;;;;;;;;17.00;16.50;;;;;;;;6492701;46;8964;-59
2024/01/02 07:08:25;;;;;;;;;22.75;16.75;;;;;;;;6491619;39;9579;-59
2024/01/02 07:14:28;;;;;;;;;18.50;17.25;;;;;;;;6491370;39;9468;-59
2024/01/02 07:20:30;;;;;;;;;18.00;15.25;;;;;;;;6491784;39;8904;-58
2024/01/02 07:26:32;;;;;;;;;17.75;16.75;;;;;;;;6491332;46;8951;-59
2024/01/02 07:32:35;;;;;;;;;16.75;12.50;;;;;;;;6491135;46;8878;-59
2024/01/02 07:38:38;;;;;;;;;17.75;13.00;;;;;;;;6492142;39;8899;-59
2024/01/02 07:44:40;;;;;;;;;15.25;12.00;;;;;;;;6490841;31;8955;-58
2024/01/02 07:50:42;;;;;;;;;16.00;16.00;;;;;;;;6490469;39;8935;-59
2024/01/02 07:56:45;;;;;;;;;16.25;13.25;;;;;;;;6491007;39;8964;-58
2024/01/02 08:02:48;;;;;;;;;14.50;14.50;;;;;;;;6491770;39;8928;-58
2024/01/02 08:08:51;;;;;;;;;17.25;17.00;;;;;;;;6490974;39;8889;-60
2024/01/02 08:14:53;;;;;;;;;21.00;18.50;;;;;;;;6491554;46;8948;-59
2024/01/02 08:20:56;;;;;;;;;20.00;16.75;;;;;;;;6490475;31;8965;-58
2024/01/02 08:27:00;;;;;;;;;17.75;15.75;;;;;;;;6491104;39;8904;-60
2024/01/02 08:33:03;;;;;;;;;18.25;13.75;;;;;;;;6491254;39;9058;-60
2024/01/02 08:39:06;;;;;;;;;12.50;12.50;;;;;;;;6490479;46;8954;-59
2024/01/02 08:45:12;;;;;;;;;17.25;16.25;;;;;;;;6490821;31;8865;-60
2024/01/02 08:51:14;;;;;;;;;19.75;19.50;;;;;;;;6490418;39;8941;-59
2024/01/02 08:57:17;;;;;;;;;21.75;18.50;;;;;;;;6491259;31;8894;-58
2024/01/02 09:03:19;;;;;;;;;18.50;17.00;;;;;;;;6490453;39;8940;-59
2024/01/02 09:09:23;;;;;;;;;18.00;17.00;;;;;;;;6490058;46;8841;-59
2024/01/02 09:15:25;;;;;;;;;19.25;18.25;;;;;;;;6490787;31;8904;-59
2024/01/02 09:21:28;;;;;;;;;29.75;21.50;;;;;;;;6490635;31;8970;-59
2024/01/02 09:27:34;;;;;;;;;24.25;21.00;;;;;;;;6490060;39;8884;-59
2024/01/02 09:33:38;;;;;;;;;18.25;14.00;;;;;;;;6492973;31;9013;-59
2024/01/02 09:39:41;;;;;;;;;23.25;20.50;;;;;;;;6492183;39;9515;-59
2024/01/02 09:45:49;;;;;;;;;16.25;15.25;;;;;;;;6492261;46;8862;-58
2024/01/02 09:52:18;;;;;;;;;24.25;23.00;;;;;;;;6492758;39;8881;-59
2024/01/02 09:58:31;;;;;;;;;27.25;24.75;;;;;;;;6491963;46;8898;-60
2024/01/02 10:04:58;;;;;;;;;22.00;19.25;;;;;;;;6492263;31;8978;-59
2024/01/02 10:11:15;;;;;;;;;22.50;22.50;;;;;;;;6491032;39;8914;-59
2024/01/02 10:17:43;;;;;;;;;24.00;21.00;;;;;;;;5841290;36;10001662;-59
2024/01/02 10:23:59;;;;;;;;;23.25;20.00;;;;;;;;6492106;36;8891;-58
2024/01/02 10:30:07;;;;;;;;;23.50;20.00;;;;;;;;6490588;39;8963;-60
2024/01/02 10:36:11;;;;;;;;;25.00;21.75;;;;;;;;6491102;39;8897;-59
2024/01/02 10:42:26;;;;;;;;;19.75;17.00;;;;;;;;6491027;39;8861;-60
2024/01/02 10:49:04;;;;;;;;;22.50;20.75;;;;;;;;6490836;39;8937;-59
2024/01/02 10:55:28;;;;;;;;;22.75;20.00;;;;;;;;6490237;46;8908;-59
2024/01/02 11:01:36;;;;;;;;;19.00;19.00;;;;;;;;6490422;39;9000;-60
2024/01/02 11:07:48;;;;;;;;;23.75;19.25;;;;;;;;6491452;46;8990;-60
2024/01/02 11:13:52;;;;;;;;;24.00;20.50;;;;;;;;6489889;39;8878;-59
2024/01/02 11:20:01;;;;;;;;;18.25;15.50;;;;;;;;6490252;39;8924;-60
2024/01/02 11:26:20;;;;;;;;;22.00;20.50;;;;;;;;6489248;39;8905;-59
2024/01/02 11:32:51;;;;;;;;;20.00;19.25;;;;;;;;6490499;39;8829;-59
2024/01/02 11:39:13;;;;;;;;;27.25;20.50;;;;;;;;6490164;46;9046;-61
2024/01/02 11:45:23;;;;;;;;;19.00;17.00;;;;;;;;6490504;39;8951;-60
2024/01/02 11:51:30;;;;;;;;;19.00;17.25;;;;;;;;6489916;46;8890;-61
2024/01/02 11:57:43;;;;;;;;;20.75;20.25;;;;;;;;6490683;39;8940;-60
2024/01/02 12:03:55;;;;;;;;;21.25;21.25;;;;;;;;6489896;46;9022;-60
2024/01/02 12:09:58;;;;;;;;;20.25;17.75;;;;;;;;6489531;46;8892;-57
2024/01/02 12:16:07;;;;;;;;;23.25;21.00;;;;;;;;6489418;39;8914;-59
2024/01/02 12:22:10;;;;;;;;;16.25;12.25;;;;;;;;6490264;39;8877;-59
2024/01/02 12:28:14;;;;;;;;;26.25;20.00;;;;;;;;6490008;31;8882;-60
2024/01/02 12:34:30;;;;;;;;;25.75;23.25;;;;;;;;6489062;46;8896;-60
2024/01/02 12:40:35;;;;;;;;;20.25;20.25;;;;;;;;6490763;31;8898;-60
2024/01/02 12:47:02;;;;;;;;;24.25;21.25;;;;;;;;6489172;46;8880;-59
2024/01/02 12:53:10;;;;;;;;;20.50;20.00;;;;;;;;6490142;46;8898;-59
2024/01/02 12:59:12;;;;;;;;;14.25;14.25;;;;;;;;6489574;46;8868;-59
2024/01/02 13:05:16;;;;;;;;;25.25;22.50;;;;;;;;6489613;31;8962;-59
2024/01/02 13:11:21;;;;;;;;;15.25;14.75;;;;;;;;6489207;39;8905;-59
2024/01/02 13:17:27;;;;;;;;;18.50;17.25;;;;;;;;6489048;39;8918;-60
2024/01/02 13:23:29;;;;;;;;;19.25;17.00;;;;;;;;6489048;47;8920;-58
2024/01/02 13:29:31;;;;;;;;;15.00;11.50;;;;;;;;6488613;39;8926;-59
2024/01/02 13:35:37;;;;;;;;;16.50;16.00;;;;;;;;6489362;39;9514;-59
2024/01/02 13:41:43;;;;;;;;;21.50;17.00;;;;;;;;6489223;39;8906;-60
2024/01/02 13:47:46;;;;;;;;;14.75;13.25;;;;;;;;6489241;47;8980;-60
2024/01/02 13:54:07;;;;;;;;;19.50;19.50;;;;;;;;6488748;39;8862;-58
2024/01/02 14:00:12;;;;;;;;;16.50;15.75;;;;;;;;6488224;39;9695;-60
2024/01/02 14:06:15;;;;;;;;;18.75;18.75;;;;;;;;6488964;39;8961;-59
2024/01/02 14:12:17;;;;;;;;;20.00;15.75;;;;;;;;6488977;39;8926;-59
2024/01/02 14:18:19;;;;;;;;;18.75;18.25;;;;;;;;6490192;46;8921;-59
2024/01/02 14:24:34;;;;;;;;;13.75;13.75;;;;;;;;6491083;46;8936;-59
2024/01/02 14:30:38;;;;;;;;;14.50;14.50;;;;;;;;6490343;46;8890;-58
2024/01/02 14:36:43;;;;;;;;;18.25;18.25;;;;;;;;6491117;46;8865;-59
2024/01/02 14:43:01;;;;;;;;;17.25;14.50;;;;;;;;6491119;31;10260;-59
2024/01/02 14:49:25;;;;;;;;;14.50;13.50;;;;;;;;6490821;39;8947;-58
2024/01/02 14:55:35;;;;;;;;;18.00;18.00;;;;;;;;6490064;39;8949;-60
2024/01/02 15:01:48;;;;;;;;;18.50;17.25;;;;;;;;6490544;46;8872;-60
2024/01/02 15:08:01;;;;;;;;;21.50;18.00;;;;;;;;6491725;39;8996;-60
2024/01/02 15:14:27;;;;;;;;;22.00;15.50;;;;;;;;6490565;46;8942;-59
2024/01/02 15:20:35;;;;;;;;;24.25;21.25;;;;;;;;6490560;31;8886;-60
2024/01/02 15:27:06;;;;;;;;;24.25;22.50;;;;;;;;6490522;46;8975;-61
2024/01/02 15:33:21;;;;;;;;;31.00;27.50;;;;;;;;6491373;39;8898;-61
2024/01/02 15:39:29;;;;;;;;;25.00;21.25;;;;;;;;6490379;39;8899;-60
2024/01/02 15:45:35;;;;;;;;;24.75;19.00;;;;;;;;6490916;31;8846;-61
2024/01/02 15:51:41;;;;;;;;;9.75;6.25;;;;;;;;6489961;39;8899;-60
2024/01/02 15:57:55;;;;;;;;;27.50;23.25;;;;;;;;6490100;39;9069;-60
2024/01/02 16:04:27;;;;;;;;;27.25;24.25;;;;;;;;6490170;39;8924;-59
2024/01/02 16:11:04;;;;;;;;;30.00;28.75;;;;;;;;6490656;31;8882;-60
2024/01/02 16:17:52;;;;;;;;;38.75;34.50;;;;;;;;6489675;39;8940;-59
2024/01/02 16:24:33;;;;;;;;;37.75;33.00;;;;;;;;6490884;31;8862;-59
2024/01/02 16:30:48;;;;;;;;;39.25;34.25;;;;;;;;6488914;46;8904;-60
2024/01/02 16:37:16;;;;;;;;;34.25;32.75;;;;;;;;6489427;31;8897;-60
2024/01/02 16:43:21;;;;;;;;;39.33;34.33;;;;;;;;6489732;39;8946;-61
2024/01/02 16:49:24;;;;;;;;;36.00;32.50;;;;;;;;6489504;39;8952;-60
2024/01/02 16:55:28;;;;;;;;;48.75;42.25;;;;;;;;6490029;39;9552;-59
2024/01/02 17:01:41;;;;;;;;;47.00;39.50;;;;;;;;6490188;39;8894;-60
2024/01/02 17:07:45;;;;;;;;;42.00;38.25;;;;;;;;6490037;39;8948;-60
2024/01/02 17:13:50;;;;;;;;;47.75;43.25;;;;;;;;6490269;39;8846;-61
2024/01/02 17:19:53;;;;;;;;;46.00;42.25;;;;;;;;6489260;31;9102;-60
2024/01/02 17:25:55;;;;;;;;;49.50;43.25;;;;;;;;6489294;46;8928;-59
2024/01/02 17:31:59;;;;;;;;;45.75;42.75;;;;;;;;6488472;39;8919;-59
2024/01/02 17:38:02;;;;;;;;;55.75;45.00;;;;;;;;6489539;39;8968;-59
2024/01/02 17:44:09;;;;;;;;;58.50;47.00;;;;;;;;6489791;39;8873;-59
2024/01/02 17:50:12;;;;;;;;;75.75;60.00;;;;;;;;6490118;31;9296;-60
2024/01/02 17:56:17;;;;;;;;;72.75;59.00;;;;;;;;6490651;39;8919;-60
2024/01/02 18:02:34;;;;;;;;;85.00;67.75;;;;;;;;6490299;39;9475;-58
2024/01/02 18:08:59;;;;;;;;;92.00;74.67;;;;;;;;6489895;31;8995;-60
2024/01/02 18:15:23;;;;;;;;;88.50;69.50;;;;;;;;6491108;31;8894;-59
2024/01/02 18:21:32;;;;;;;;;88.25;67.25;;;;;;;;6491135;39;8955;-59
2024/01/02 18:27:55;;;;;;;;;83.50;65.00;;;;;;;;6489033;46;8906;-60
2024/01/02 18:34:06;;;;;;;;;72.25;56.50;;;;;;;;6491059;31;8931;-60
2024/01/02 18:40:17;;;;;;;;;74.25;59.00;;;;;;;;6491749;39;9044;-60
2024/01/02 18:46:23;;;;;;;;;74.25;60.25;;;;;;;;6490299;39;9591;-60
2024/01/02 18:52:56;;;;;;;;;77.50;62.50;;;;;;;;6491243;39;8946;-59
2024/01/02 18:58:59;;;;;;;;;82.75;66.00;;;;;;;;6489998;46;8962;-60
2024/01/02 19:05:04;;;;;;;;;66.25;53.25;;;;;;;;6490676;39;8950;-60
2024/01/02 19:11:07;;;;;;;;;66.00;52.50;;;;;;;;6491193;39;8932;-60
2024/01/02 19:17:11;;;;;;;;;60.25;49.50;;;;;;;;6490919;31;9056;-61
2024/01/02 19:23:16;;;;;;;;;66.00;50.75;;;;;;;;6489161;46;8900;-60
2024/01/02 19:29:20;;;;;;;;;60.25;47.75;;;;;;;;6490771;39;8866;-59
2024/01/02 19:35:23;;;;;;;;;60.75;49.25;;;;;;;;6490358;46;8932;-60
2024/01/02 19:41:25;;;;;;;;;57.50;47.25;;;;;;;;6489993;46;8938;-58
2024/01/02 19:47:27;;;;;;;;;65.25;50.00;;;;;;;;6489768;39;8940;-60
2024/01/02 19:53:30;;;;;;;;;51.25;43.75;;;;;;;;6489398;39;8913;-60
2024/01/02 19:59:33;;;;;;;;;56.50;46.25;;;;;;;;6489659;46;8908;-59
2024/01/02 20:05:36;;;;;;;;;48.25;42.25;;;;;;;;6490271;31;9058;-60
2024/01/02 20:11:38;;;;;;;;;54.75;48.00;;;;;;;;6490588;39;8968;-59
2024/01/02 20:17:43;;;;;;;;;49.00;43.25;;;;;;;;6489788;39;8926;-60
2024/01/02 20:23:48;;;;;;;;;50.75;42.75;;;;;;;;6491171;39;8941;-59
2024/01/02 20:29:56;;;;;;;;;49.25;41.00;;;;;;;;6490410;39;8890;-59
2024/01/02 20:36:03;;;;;;;;;47.00;43.75;;;;;;;;6489805;39;8848;-60
2024/01/02 20:42:08;;;;;;;;;50.00;45.25;;;;;;;;6490222;39;8878;-59
2024/01/02 20:48:10;;;;;;;;;50.75;44.75;;;;;;;;6490095;39;9039;-59
2024/01/02 20:54:18;;;;;;;;;58.00;44.50;;;;;;;;6489571;46;8886;-60
2024/01/02 21:00:33;;;;;;;;;48.00;41.50;;;;;;;;6489681;39;9004;-60
2024/01/02 21:06:40;;;;;;;;;47.50;41.00;;;;;;;;6490399;39;8994;-60
2024/01/02 21:12:43;;;;;;;;;50.00;43.50;;;;;;;;6489215;39;8837;-59
2024/01/02 21:18:50;;;;;;;;;55.25;43.75;;;;;;;;6490057;39;8972;-60
2024/01/02 21:24:52;;;;;;;;;47.75;42.25;;;;;;;;6490093;39;8860;-59
2024/01/02 21:30:55;;;;;;;;;52.75;44.00;;;;;;;;6492149;39;8870;-59
2024/01/02 21:37:00;;;;;;;;;48.25;39.75;;;;;;;;6491802;39;8903;-59
2024/01/02 21:43:07;;;;;;;;;43.50;40.75;;;;;;;;6491167;31;8902;-59
2024/01/02 21:49:28;;;;;;;;;33.00;31.75;;;;;;;;6491568;46;8852;-59
2024/01/02 21:55:33;;;;;;;;;35.25;35.25;;;;;;;;6491422;46;8854;-59
2024/01/02 22:01:36;;;;;;;;;32.50;32.25;;;;;;;;6492119;31;8901;-60
2024/01/02 22:07:42;;;;;;;;;38.00;34.25;;;;;;;;6492192;39;8971;-59
2024/01/02 22:13:55;;;;;;;;;43.75;38.25;;;;;;;;6491387;31;8892;-59
2024/01/02 22:20:07;;;;;;;;;36.50;35.00;;;;;;;;6490936;39;8894;-60
2024/01/02 22:26:11;;;;;;;;;46.00;35.50;;;;;;;;6491857;31;9047;-60
2024/01/02 22:32:14;;;;;;;;;39.50;36.75;;;;;;;;6491006;31;9060;-59
2024/01/02 22:38:57;;;;;;;;;31.75;30.00;;;;;;;;6490854;39;8924;-60
2024/01/02 22:44:59;;;;;;;;;35.50;33.50;;;;;;;;6489609;39;8898;-59
2024/01/02 22:51:03;;;;;;;;;38.75;33.75;;;;;;;;6490738;39;8967;-60
2024/01/02 22:57:07;;;;;;;;;30.75;29.50;;;;;;;;6490973;31;9067;-59
2024/01/02 23:03:09;;;;;;;;;30.00;30.00;;;;;;;;6489967;46;8951;-59
2024/01/02 23:09:34;;;;;;;;;33.00;32.00;;;;;;;;6490954;39;8940;-60
2024/01/02 23:16:08;;;;;;;;;29.75;28.00;;;;;;;;6491490;39;8904;-59
2024/01/02 23:22:11;;;;;;;;;32.25;29.50;;;;;;;;6491011;39;8984;-59
2024/01/02 23:28:57;;;;;;;;;30.75;24.75;;;;;;;;6491580;39;8885;-59
2024/01/02 23:34:59;;;;;;;;;31.25;28.00;;;;;;;;6490307;39;8881;-59
2024/01/02 23:41:01;;;;;;;;;38.75;32.50;;;;;;;;6491436;31;8928;-59
2024/01/02 23:47:04;;;;;;;;;28.75;25.50;;;;;;;;6490228;39;8885;-59
2024/01/02 23:53:06;;;;;;;;;26.75;24.00;;;;;;;;6490949;31;8884;-59
2024/01/02 23:59:12;;;;;;;;;28.00;23.25;;;;;;;;6490986;39;8898;-60
